sensor_id;sensor_type;location;lat;lon;timestamp;pressure;altitude;pressure_sealevel;temperature;humidity
9421;BME280;4749;51.398;5.466;2023-03-21T00:00:29;101512.41;;;11.46;100.00
9421;BME280;4749;51.398;5.466;2023-03-21T00:02:56;101511.53;;;11.45;100.00
9421;BME280;4749;51.398;5.466;2023-03-21T00:05:23;101505.34;;;11.42;100.00
9421;BME280;4749;51.398;5.466;2023-03-21T00:07:51;101500.94;;;11.39;100.00
9421;BME280;4749;51.398;5.466;2023-03-21T00:10:18;101498.28;;;11.38;100.00
9421;BME280;4749;51.398;5.466;2023-03-21T00:13:05;101497.44;;;11.39;100.00
9421;BME280;4749;51.398;5.466;2023-03-21T00:15:32;101493.91;;;11.38;100.00
9421;BME280;4749;51.398;5.466;2023-03-21T00:18:17;101481.63;;;11.36;100.00
9421;BME280;4749;51.398;5.466;2023-03-21T00:20:44;101487.75;;;11.36;100.00
9421;BME280;4749;51.398;5.466;2023-03-21T00:23:43;101482.50;;;11.36;100.00
9421;BME280;4749;51.398;5.466;2023-03-21T00:26:11;101485.13;;;11.36;100.00
9421;BME280;4749;51.398;5.466;2023-03-21T00:28:42;101478.09;;;11.37;100.00
9421;BME280;4749;51.398;5.466;2023-03-21T00:31:10;101476.34;;;11.36;100.00
9421;BME280;4749;51.398;5.466;2023-03-21T00:33:37;101470.22;;;11.37;100.00
9421;BME280;4749;51.398;5.466;2023-03-21T00:36:21;101469.34;;;11.36;100.00
9421;BME280;4749;51.398;5.466;2023-03-21T00:38:52;101470.22;;;11.37;100.00
9421;BME280;4749;51.398;5.466;2023-03-21T00:41:19;101464.94;;;11.38;100.00
9421;BME280;4749;51.398;5.466;2023-03-21T00:44:06;101457.06;;;11.38;100.00
9421;BME280;4749;51.398;5.466;2023-03-21T00:46:33;101458.81;;;11.39;100.00
9421;BME280;4749;51.398;5.466;2023-03-21T00:49:15;101450.94;;;11.41;100.00
9421;BME280;4749;51.398;5.466;2023-03-21T00:51:42;101449.19;;;11.43;100.00
9421;BME280;4749;51.398;5.466;2023-03-21T00:54:11;101448.34;;;11.44;100.00
9421;BME280;4749;51.398;5.466;2023-03-21T00:56:38;101445.72;;;11.45;100.00
9421;BME280;4749;51.398;5.466;2023-03-21T00:59:05;101442.19;;;11.45;100.00
9421;BME280;4749;51.398;5.466;2023-03-21T01:01:32;101432.53;;;11.44;100.00
9421;BME280;4749;51.398;5.466;2023-03-21T01:04:01;101434.31;;;11.45;100.00
9421;BME280;4749;51.398;5.466;2023-03-21T01:06:42;101427.28;;;11.44;100.00
9421;BME280;4749;51.398;5.466;2023-03-21T01:09:20;101423.72;;;11.42;100.00
9421;BME280;4749;51.398;5.466;2023-03-21T01:11:49;101424.59;;;11.42;100.00
9421;BME280;4749;51.398;5.466;2023-03-21T01:14:18;101419.31;;;11.39;100.00
9421;BME280;4749;51.398;5.466;2023-03-21T01:16:52;101420.19;;;11.38;100.00
9421;BME280;4749;51.398;5.466;2023-03-21T01:19:23;101423.72;;;11.39;100.00
9421;BME280;4749;51.398;5.466;2023-03-21T01:22:15;101417.56;;;11.38;100.00
9421;BME280;4749;51.398;5.466;2023-03-21T01:24:42;101414.94;;;11.41;100.00
9421;BME280;4749;51.398;5.466;2023-03-21T01:27:21;101410.56;;;11.40;100.00
9421;BME280;4749;51.398;5.466;2023-03-21T01:29:48;101403.53;;;11.39;100.00
9421;BME280;4749;51.398;5.466;2023-03-21T01:32:15;101404.41;;;11.40;100.00
9421;BME280;4749;51.398;5.466;2023-03-21T01:34:42;101401.78;;;11.41;100.00
9421;BME280;4749;51.398;5.466;2023-03-21T01:37:09;101395.63;;;11.42;100.00
9421;BME280;4749;51.398;5.466;2023-03-21T01:39:36;101397.41;;;11.42;100.00
9421;BME280;4749;51.398;5.466;2023-03-21T01:42:03;101395.69;;;11.44;100.00
9421;BME280;4749;51.398;5.466;2023-03-21T01:44:30;101393.88;;;11.43;100.00
9421;BME280;4749;51.398;5.466;2023-03-21T01:46:58;101391.25;;;11.43;100.00
9421;BME280;4749;51.398;5.466;2023-03-21T01:49:45;101392.13;;;11.42;100.00
9421;BME280;4749;51.398;5.466;2023-03-21T01:52:18;101391.25;;;11.40;100.00
9421;BME280;4749;51.398;5.466;2023-03-21T01:55:05;101390.38;;;11.39;100.00
9421;BME280;4749;51.398;5.466;2023-03-21T01:57:43;101385.97;;;11.38;100.00
9421;BME280;4749;51.398;5.466;2023-03-21T02:00:30;101376.31;;;11.36;100.00
9421;BME280;4749;51.398;5.466;2023-03-21T02:03:01;101381.56;;;11.37;100.00
9421;BME280;4749;51.398;5.466;2023-03-21T02:06:04;101374.56;;;11.38;100.00
9421;BME280;4749;51.398;5.466;2023-03-21T02:08:35;101371.94;;;11.36;100.00
9421;BME280;4749;51.398;5.466;2023-03-21T02:11:07;101371.03;;;11.36;100.00
9421;BME280;4749;51.398;5.466;2023-03-21T02:13:36;101364.91;;;11.37;100.00
9421;BME280;4749;51.398;5.466;2023-03-21T02:31:23;101346.38;;;11.26;100.00
9421;BME280;4749;51.398;5.466;2023-03-21T02:36:59;101341.09;;;11.23;100.00
9421;BME280;4749;51.398;5.466;2023-03-21T02:40:10;101328.81;;;11.22;100.00
9421;BME280;4749;51.398;5.466;2023-03-21T02:46:16;101327.91;;;11.18;100.00
9421;BME280;4749;51.398;5.466;2023-03-21T02:48:56;101334.91;;;11.16;100.00
9421;BME280;4749;51.398;5.466;2023-03-21T02:51:25;101334.03;;;11.17;100.00
9421;BME280;4749;51.398;5.466;2023-03-21T02:54:01;101329.63;;;11.18;100.00
9421;BME280;4749;51.398;5.466;2023-03-21T02:56:52;101329.63;;;11.15;100.00
9421;BME280;4749;51.398;5.466;2023-03-21T02:59:23;101325.22;;;11.12;100.00
9421;BME280;4749;51.398;5.466;2023-03-21T03:01:51;101315.53;;;11.10;100.00
9421;BME280;4749;51.398;5.466;2023-03-21T03:04:27;101324.31;;;11.09;100.00
9421;BME280;4749;51.398;5.466;2023-03-21T03:18:23;101316.25;;;10.92;100.00
9421;BME280;4749;51.398;5.466;2023-03-21T03:23:47;101307.47;;;10.87;100.00
9421;BME280;4749;51.398;5.466;2023-03-21T03:26:40;101301.28;;;10.82;100.00
9421;BME280;4749;51.398;5.466;2023-03-21T03:29:15;101305.63;;;10.77;100.00
9421;BME280;4749;51.398;5.466;2023-03-21T03:31:56;101295.94;;;10.74;100.00
9421;BME280;4749;51.398;5.466;2023-03-21T03:34:34;101293.31;;;10.71;100.00
9421;BME280;4749;51.398;5.466;2023-03-21T03:37:09;101290.69;;;10.73;100.00
9421;BME280;4749;51.398;5.466;2023-03-21T03:42:51;101298.56;;;10.74;100.00
9421;BME280;4749;51.398;5.466;2023-03-21T03:45:22;101291.56;;;10.73;100.00
9421;BME280;4749;51.398;5.466;2023-03-21T03:48:51;101288.94;;;10.75;100.00
9421;BME280;4749;51.398;5.466;2023-03-21T03:50:57;101294.19;;;10.75;100.00
9421;BME280;4749;51.398;5.466;2023-03-21T03:53:33;101288.94;;;10.75;100.00
9421;BME280;4749;51.398;5.466;2023-03-21T03:56:07;101288.94;;;10.73;100.00
9421;BME280;4749;51.398;5.466;2023-03-21T03:58:38;101288.03;;;10.73;100.00
9421;BME280;4749;51.398;5.466;2023-03-21T04:01:12;101288.03;;;10.73;100.00
9421;BME280;4749;51.398;5.466;2023-03-21T04:03:43;101290.69;;;10.73;100.00
9421;BME280;4749;51.398;5.466;2023-03-21T04:06:19;101284.56;;;10.75;100.00
9421;BME280;4749;51.398;5.466;2023-03-21T04:08:48;101288.06;;;10.76;100.00
9421;BME280;4749;51.398;5.466;2023-03-21T04:11:19;101281.03;;;10.75;100.00
9421;BME280;4749;51.398;5.466;2023-03-21T04:13:47;101279.28;;;10.74;100.00
9421;BME280;4749;51.398;5.466;2023-03-21T04:16:14;101281.91;;;10.74;100.00
9421;BME280;4749;51.398;5.466;2023-03-21T04:18:41;101269.63;;;10.73;100.00
9421;BME280;4749;51.398;5.466;2023-03-21T04:21:14;101273.16;;;10.73;100.00
9421;BME280;4749;51.398;5.466;2023-03-21T04:23:41;101277.53;;;10.74;100.00
9421;BME280;4749;51.398;5.466;2023-03-21T04:26:10;101270.53;;;10.73;100.00
9421;BME280;4749;51.398;5.466;2023-03-21T04:28:37;101266.13;;;10.72;100.00
9421;BME280;4749;51.398;5.466;2023-03-21T04:31:07;101263.50;;;10.70;100.00
9421;BME280;4749;51.398;5.466;2023-03-21T04:33:50;101264.38;;;10.69;100.00
9421;BME280;4749;51.398;5.466;2023-03-21T04:36:17;101262.63;;;10.71;100.00
9421;BME280;4749;51.398;5.466;2023-03-21T04:38:56;101251.22;;;10.71;100.00
9421;BME280;4749;51.398;5.466;2023-03-21T04:41:28;101260.88;;;10.72;100.00
9421;BME280;4749;51.398;5.466;2023-03-21T04:43:55;101255.63;;;10.74;100.00
9421;BME280;4749;51.398;5.466;2023-03-21T04:46:23;101253.84;;;10.73;100.00
9421;BME280;4749;51.398;5.466;2023-03-21T04:48:50;101252.97;;;10.70;100.00
9421;BME280;4749;51.398;5.466;2023-03-21T04:51:17;101245.97;;;10.69;100.00
9421;BME280;4749;51.398;5.466;2023-03-21T04:53:44;101238.91;;;10.67;100.00
9421;BME280;4749;51.398;5.466;2023-03-21T04:56:15;101234.50;;;10.66;100.00
9421;BME280;4749;51.398;5.466;2023-03-21T04:58:42;101235.38;;;10.65;100.00
9421;BME280;4749;51.398;5.466;2023-03-21T05:01:09;101233.63;;;10.65;100.00
9421;BME280;4749;51.398;5.466;2023-03-21T05:03:41;101234.50;;;10.66;100.00
9421;BME280;4749;51.398;5.466;2023-03-21T05:06:09;101233.66;;;10.67;100.00
9421;BME280;4749;51.398;5.466;2023-03-21T05:08:36;101239.81;;;10.69;100.00
9421;BME280;4749;51.398;5.466;2023-03-21T05:11:04;101238.06;;;10.71;100.00
9421;BME280;4749;51.398;5.466;2023-03-21T05:13:31;101226.69;;;10.74;100.00
9421;BME280;4749;51.398;5.466;2023-03-21T05:15:59;101226.75;;;10.77;100.00
9421;BME280;4749;51.398;5.466;2023-03-21T05:18:26;101232.88;;;10.77;100.00
9421;BME280;4749;51.398;5.466;2023-03-21T05:20:53;101239.03;;;10.79;100.00
9421;BME280;4749;51.398;5.466;2023-03-21T05:23:22;101232.88;;;10.80;100.00
9421;BME280;4749;51.398;5.466;2023-03-21T05:25:50;101232.91;;;10.82;100.00
9421;BME280;4749;51.398;5.466;2023-03-21T05:28:17;101229.38;;;10.83;100.00
9421;BME280;4749;51.398;5.466;2023-03-21T05:30:45;101227.63;;;10.83;100.00
9421;BME280;4749;51.398;5.466;2023-03-21T05:33:13;101224.16;;;10.86;100.00
9421;BME280;4749;51.398;5.466;2023-03-21T05:35:40;101232.06;;;10.89;100.00
9421;BME280;4749;51.398;5.466;2023-03-21T05:38:07;101224.19;;;10.89;100.00
9421;BME280;4749;51.398;5.466;2023-03-21T05:40:35;101224.19;;;10.92;100.00
9421;BME280;4749;51.398;5.466;2023-03-21T05:43:02;101221.56;;;10.90;100.00
9421;BME280;4749;51.398;5.466;2023-03-21T05:45:29;101219.81;;;10.92;100.00
9421;BME280;4749;51.398;5.466;2023-03-21T05:47:56;101227.75;;;10.94;100.00
9421;BME280;4749;51.398;5.466;2023-03-21T05:50:23;101221.59;;;10.95;100.00
9421;BME280;4749;51.398;5.466;2023-03-21T05:52:51;101218.97;;;10.95;100.00
9421;BME280;4749;51.398;5.466;2023-03-21T05:55:21;101221.63;;;10.99;100.00
9421;BME280;4749;51.398;5.466;2023-03-21T05:57:48;101221.66;;;11.03;100.00
9421;BME280;4749;51.398;5.466;2023-03-21T06:00:16;101219.03;;;11.03;100.00
9421;BME280;4749;51.398;5.466;2023-03-21T06:02:44;101225.19;;;11.05;100.00
9421;BME280;4749;51.398;5.466;2023-03-21T06:05:11;101230.44;;;11.09;100.00
9421;BME280;4749;51.398;5.466;2023-03-21T06:07:38;101219.97;;;11.14;100.00
9421;BME280;4749;51.398;5.466;2023-03-21T06:10:06;101229.63;;;11.13;100.00
9421;BME280;4749;51.398;5.466;2023-03-21T06:12:34;101223.50;;;11.16;100.00
9421;BME280;4749;51.398;5.466;2023-03-21T06:15:03;101227.00;;;11.16;100.00
9421;BME280;4749;51.398;5.466;2023-03-21T06:17:31;101231.41;;;11.19;100.00
9421;BME280;4749;51.398;5.466;2023-03-21T06:19:58;101226.16;;;11.19;100.00
9421;BME280;4749;51.398;5.466;2023-03-21T06:22:27;101234.06;;;11.22;100.00
9421;BME280;4749;51.398;5.466;2023-03-21T06:24:54;101232.31;;;11.22;100.00
9421;BME280;4749;51.398;5.466;2023-03-21T06:27:22;101234.06;;;11.26;100.00
9421;BME280;4749;51.398;5.466;2023-03-21T06:29:49;101229.72;;;11.28;100.00
9421;BME280;4749;51.398;5.466;2023-03-21T06:32:16;101229.72;;;11.32;100.00
9421;BME280;4749;51.398;5.466;2023-03-21T06:34:43;101235.00;;;11.33;100.00
9421;BME280;4749;51.398;5.466;2023-03-21T06:37:10;101236.78;;;11.36;100.00
9421;BME280;4749;51.398;5.466;2023-03-21T06:39:38;101238.53;;;11.37;100.00
9421;BME280;4749;51.398;5.466;2023-03-21T06:42:05;101235.91;;;11.38;100.00
9421;BME280;4749;51.398;5.466;2023-03-21T06:44:32;101238.56;;;11.41;100.00
9421;BME280;4749;51.398;5.466;2023-03-21T06:46:59;101238.56;;;11.41;100.00
9421;BME280;4749;51.398;5.466;2023-03-21T06:49:27;101246.50;;;11.44;100.00
9421;BME280;4749;51.398;5.466;2023-03-21T06:51:54;101239.47;;;11.46;100.00
9421;BME280;4749;51.398;5.466;2023-03-21T06:54:21;101237.72;;;11.48;100.00
9421;BME280;4749;51.398;5.466;2023-03-21T06:56:48;101238.59;;;11.50;100.00
9421;BME280;4749;51.398;5.466;2023-03-21T06:59:16;101241.28;;;11.53;100.00
9421;BME280;4749;51.398;5.466;2023-03-21T07:01:43;101243.03;;;11.57;100.00
9421;BME280;4749;51.398;5.466;2023-03-21T07:04:10;101247.41;;;11.59;100.00
9421;BME280;4749;51.398;5.466;2023-03-21T07:06:38;101243.94;;;11.63;100.00
9421;BME280;4749;51.398;5.466;2023-03-21T07:09:05;101245.69;;;11.67;100.00
9421;BME280;4749;51.398;5.466;2023-03-21T07:11:35;101251.88;;;11.69;100.00
9421;BME280;4749;51.398;5.466;2023-03-21T07:14:03;101251.00;;;11.71;100.00
9421;BME280;4749;51.398;5.466;2023-03-21T07:16:31;101252.75;;;11.74;100.00
9421;BME280;4749;51.398;5.466;2023-03-21T07:18:58;101253.66;;;11.74;100.00
9421;BME280;4749;51.398;5.466;2023-03-21T07:21:25;101258.03;;;11.72;100.00
9421;BME280;4749;51.398;5.466;2023-03-21T07:23:52;101258.03;;;11.72;100.00
9421;BME280;4749;51.398;5.466;2023-03-21T07:26:19;101260.66;;;11.71;100.00
9421;BME280;4749;51.398;5.466;2023-03-21T07:28:46;101266.81;;;11.71;100.00
9421;BME280;4749;51.398;5.466;2023-03-21T07:31:15;101265.06;;;11.69;100.00
9421;BME280;4749;51.398;5.466;2023-03-21T07:33:43;101269.41;;;11.67;100.00
9421;BME280;4749;51.398;5.466;2023-03-21T07:36:14;101272.91;;;11.67;100.00
9421;BME280;4749;51.398;5.466;2023-03-21T07:38:43;101266.81;;;11.71;100.00
9421;BME280;4749;51.398;5.466;2023-03-21T07:41:12;101273.84;;;11.75;100.00
9421;BME280;4749;51.398;5.466;2023-03-21T07:43:39;101265.06;;;11.76;100.00
9421;BME280;4749;51.398;5.466;2023-03-21T07:46:06;101265.94;;;11.77;100.00
9421;BME280;4749;51.398;5.466;2023-03-21T07:48:34;101267.75;;;11.81;100.00
9421;BME280;4749;51.398;5.466;2023-03-21T07:51:01;101259.84;;;11.84;100.00
9421;BME280;4749;51.398;5.466;2023-03-21T07:53:28;101259.00;;;11.91;100.00
9421;BME280;4749;51.398;5.466;2023-03-21T07:55:55;101256.41;;;11.99;100.00
9421;BME280;4749;51.398;5.466;2023-03-21T07:58:24;101254.69;;;12.02;100.00
9421;BME280;4749;51.398;5.466;2023-03-21T08:00:52;101245.91;;;12.03;100.00
9421;BME280;4749;51.398;5.466;2023-03-21T08:03:21;101236.25;;;12.02;100.00
9421;BME280;4749;51.398;5.466;2023-03-21T08:05:49;101234.44;;;12.01;100.00
9421;BME280;4749;51.398;5.466;2023-03-21T08:08:17;101227.44;;;12.03;100.00
9421;BME280;4749;51.398;5.466;2023-03-21T08:10:44;101220.44;;;12.02;100.00
9421;BME280;4749;51.398;5.466;2023-03-21T08:13:12;101218.63;;;12.00;100.00
9421;BME280;4749;51.398;5.466;2023-03-21T08:15:39;101223.91;;;11.95;100.00
9421;BME280;4749;51.398;5.466;2023-03-21T08:18:09;101216.84;;;11.88;100.00
9421;BME280;4749;51.398;5.466;2023-03-21T08:20:37;101215.94;;;11.83;100.00
9421;BME280;4749;51.398;5.466;2023-03-21T08:23:04;101209.78;;;11.79;100.00
9421;BME280;4749;51.398;5.466;2023-03-21T08:25:31;101209.75;;;11.76;100.00
9421;BME280;4749;51.398;5.466;2023-03-21T08:27:59;101199.22;;;11.75;100.00
9421;BME280;4749;51.398;5.466;2023-03-21T08:30:28;101198.34;;;11.79;100.00
9421;BME280;4749;51.398;5.466;2023-03-21T08:32:57;101200.19;;;11.89;100.00
9421;BME280;4749;51.398;5.466;2023-03-21T08:35:27;101192.28;;;11.98;100.00
9421;BME280;4749;51.398;5.466;2023-03-21T08:37:55;101187.03;;;12.04;100.00
9421;BME280;4749;51.398;5.466;2023-03-21T08:40:23;101187.94;;;12.14;100.00
9421;BME280;4749;51.398;5.466;2023-03-21T08:42:50;101185.31;;;12.22;100.00
9421;BME280;4749;51.398;5.466;2023-03-21T08:45:20;101181.81;;;12.29;100.00
9421;BME280;4749;51.398;5.466;2023-03-21T08:47:48;101194.09;;;12.31;100.00
9421;BME280;4749;51.398;5.466;2023-03-21T08:50:20;101183.56;;;12.30;100.00
9421;BME280;4749;51.398;5.466;2023-03-21T08:52:47;101200.25;;;12.35;100.00
9421;BME280;4749;51.398;5.466;2023-03-21T08:55:16;101197.63;;;12.38;100.00
9421;BME280;4749;51.398;5.466;2023-03-21T08:57:44;101184.47;;;12.46;100.00
9421;BME280;4749;51.398;5.466;2023-03-21T09:00:15;101185.34;;;12.55;100.00
9421;BME280;4749;51.398;5.466;2023-03-21T09:02:46;101189.72;;;12.67;100.00
9421;BME280;4749;51.398;5.466;2023-03-21T09:05:14;101185.31;;;12.83;100.00
9421;BME280;4749;51.398;5.466;2023-03-21T09:07:43;101182.69;;;12.95;100.00
9421;BME280;4749;51.398;5.466;2023-03-21T09:10:16;101183.50;;;13.02;100.00
9421;BME280;4749;51.398;5.466;2023-03-21T09:12:51;101177.34;;;13.07;100.00
9421;BME280;4749;51.398;5.466;2023-03-21T09:15:20;101178.22;;;13.09;100.00
9421;BME280;4749;51.398;5.466;2023-03-21T09:17:48;101179.13;;;13.13;100.00
9421;BME280;4749;51.398;5.466;2023-03-21T09:20:21;101172.94;;;13.20;100.00
9421;BME280;4749;51.398;5.466;2023-03-21T09:22:52;101175.59;;;13.24;100.00
9421;BME280;4749;51.398;5.466;2023-03-21T09:25:20;101165.91;;;13.30;100.00
9421;BME280;4749;51.398;5.466;2023-03-21T09:27:47;101167.63;;;13.32;100.00
9421;BME280;4749;51.398;5.466;2023-03-21T09:30:17;101166.75;;;13.39;100.00
9421;BME280;4749;51.398;5.466;2023-03-21T09:32:45;101165.81;;;13.43;100.00
9421;BME280;4749;51.398;5.466;2023-03-21T09:35:16;101172.81;;;13.53;100.00
9421;BME280;4749;51.398;5.466;2023-03-21T09:37:48;101170.16;;;13.64;100.00
9421;BME280;4749;51.398;5.466;2023-03-21T09:40:25;101161.28;;;13.74;100.00
9421;BME280;4749;51.398;5.466;2023-03-21T09:46:05;101158.50;;;13.99;100.00
9421;BME280;4749;51.398;5.466;2023-03-21T09:48:49;101156.66;;;14.15;100.00
9421;BME280;4749;51.398;5.466;2023-03-21T09:51:27;101154.78;;;14.26;100.00
9421;BME280;4749;51.398;5.466;2023-03-21T09:54:02;101144.13;;;14.35;100.00
9421;BME280;4749;51.398;5.466;2023-03-21T09:56:29;101143.22;;;14.47;100.00
9421;BME280;4749;51.398;5.466;2023-03-21T09:58:58;101144.88;;;14.54;100.00
9421;BME280;4749;51.398;5.466;2023-03-21T10:01:29;101138.75;;;14.50;100.00
9421;BME280;4749;51.398;5.466;2023-03-21T10:04:10;101135.25;;;14.45;100.00
9421;BME280;4749;51.398;5.466;2023-03-21T10:06:39;101129.13;;;14.37;100.00
9421;BME280;4749;51.398;5.466;2023-03-21T10:09:19;101130.00;;;14.37;100.00
9421;BME280;4749;51.398;5.466;2023-03-21T10:12:00;101128.22;;;14.43;100.00
9421;BME280;4749;51.398;5.466;2023-03-21T10:14:39;101122.03;;;14.48;100.00
9421;BME280;4749;51.398;5.466;2023-03-21T10:17:40;101121.09;;;14.52;100.00
9421;BME280;4749;51.398;5.466;2023-03-21T10:22:38;101124.47;;;14.68;100.00
9421;BME280;4749;51.398;5.466;2023-03-21T10:25:06;101123.53;;;14.75;100.00
9421;BME280;4749;51.398;5.466;2023-03-21T10:27:37;101123.47;;;14.81;100.00
9421;BME280;4749;51.398;5.466;2023-03-21T10:30:06;101118.09;;;14.90;100.00
9421;BME280;4749;51.398;5.466;2023-03-21T10:32:34;101123.16;;;15.09;100.00
9421;BME280;4749;51.398;5.466;2023-03-21T10:35:02;101114.00;;;15.36;100.00
9421;BME280;4749;51.398;5.466;2023-03-21T10:37:31;101107.50;;;15.60;100.00
9421;BME280;4749;51.398;5.466;2023-03-21T10:39:58;101112.56;;;15.80;100.00
9421;BME280;4749;51.398;5.466;2023-03-21T10:42:28;101113.06;;;16.06;100.00
9421;BME280;4749;51.398;5.466;2023-03-21T10:44:57;101110.97;;;16.26;100.00
9421;BME280;4749;51.398;5.466;2023-03-21T10:47:31;101115.09;;;16.43;100.00
9421;BME280;4749;51.398;5.466;2023-03-21T10:50:12;101110.53;;;16.51;100.00
9421;BME280;4749;51.398;5.466;2023-03-21T10:52:52;101119.25;;;16.59;100.00
9421;BME280;4749;51.398;5.466;2023-03-21T10:55:32;101122.59;;;16.70;100.00
9421;BME280;4749;51.398;5.466;2023-03-21T10:58:09;101111.84;;;16.78;100.00
9421;BME280;4749;51.398;5.466;2023-03-21T11:00:45;101118.88;;;16.80;100.00
9421;BME280;4749;51.398;5.466;2023-03-21T11:03:41;101105.41;;;16.89;100.00
9421;BME280;4749;51.398;5.466;2023-03-21T11:06:16;101108.84;;;16.96;100.00
9421;BME280;4749;51.398;5.466;2023-03-21T11:09:08;101111.41;;;17.01;100.00
9421;BME280;4749;51.398;5.466;2023-03-21T11:11:53;101113.16;;;17.02;100.00
9421;BME280;4749;51.398;5.466;2023-03-21T11:14:48;101116.72;;;17.01;100.00
9421;BME280;4749;51.398;5.466;2023-03-21T11:19:56;101109.09;;;16.84;100.00
9421;BME280;4749;51.398;5.466;2023-03-21T11:22:29;101105.69;;;16.76;100.00
9421;BME280;4749;51.398;5.466;2023-03-21T11:24:59;101112.88;;;16.71;100.00
9421;BME280;4749;51.398;5.466;2023-03-21T11:27:28;101119.94;;;16.70;100.00
9421;BME280;4749;51.398;5.466;2023-03-21T11:29:57;101120.81;;;16.71;100.00
9421;BME280;4749;51.398;5.466;2023-03-21T11:32:34;101119.84;;;16.76;100.00
9421;BME280;4749;51.398;5.466;2023-03-21T11:35:05;101113.41;;;16.88;100.00
9421;BME280;4749;51.398;5.466;2023-03-21T11:37:45;101108.66;;;17.07;100.00
9421;BME280;4749;51.398;5.466;2023-03-21T11:46:06;101111.97;;;17.60;100.00
9421;BME280;4749;51.398;5.466;2023-03-21T11:48:46;101114.69;;;17.55;100.00
9421;BME280;4749;51.398;5.466;2023-03-21T11:54:30;101117.75;;;17.79;100.00
9421;BME280;4749;51.398;5.466;2023-03-21T12:00:25;101104.72;;;18.05;100.00
9421;BME280;4749;51.398;5.466;2023-03-21T12:03:15;101104.47;;;18.16;100.00
9421;BME280;4749;51.398;5.466;2023-03-21T12:06:04;101100.56;;;18.31;100.00
9421;BME280;4749;51.398;5.466;2023-03-21T12:09:20;101106.50;;;18.42;100.00
9421;BME280;4749;51.398;5.466;2023-03-21T12:15:02;101086.50;;;18.60;100.00
9421;BME280;4749;51.398;5.466;2023-03-21T12:17:59;101086.34;;;18.67;100.00
9421;BME280;4749;51.398;5.466;2023-03-21T12:41:04;101053.25;;;18.76;100.00
9421;BME280;4749;51.398;5.466;2023-03-21T12:44:07;101055.47;;;18.59;100.00
9421;BME280;4749;51.398;5.466;2023-03-21T12:47:00;101050.19;;;18.23;100.00
9421;BME280;4749;51.398;5.466;2023-03-21T12:49:44;101046.38;;;18.33;100.00
9421;BME280;4749;51.398;5.466;2023-03-21T12:52:14;101042.63;;;18.42;100.00
9421;BME280;4749;51.398;5.466;2023-03-21T13:00:42;101041.56;;;17.78;100.00
9421;BME280;4749;51.398;5.466;2023-03-21T13:03:22;101039.56;;;17.87;100.00
9421;BME280;4749;51.398;5.466;2023-03-21T13:06:05;101035.50;;;18.42;100.00
9421;BME280;4749;51.398;5.466;2023-03-21T13:09:23;101031.00;;;18.44;100.00
9421;BME280;4749;51.398;5.466;2023-03-21T13:15:04;101030.34;;;18.36;100.00
9421;BME280;4749;51.398;5.466;2023-03-21T13:17:47;101025.59;;;18.47;100.00
9421;BME280;4749;51.398;5.466;2023-03-21T13:20:53;101024.78;;;18.78;100.00
9421;BME280;4749;51.398;5.466;2023-03-21T13:23:24;101023.25;;;18.69;100.00
9421;BME280;4749;51.398;5.466;2023-03-21T13:25:59;101021.28;;;18.76;100.00
9421;BME280;4749;51.398;5.466;2023-03-21T13:28:32;101017.28;;;18.92;100.00
9421;BME280;4749;51.398;5.466;2023-03-21T13:31:24;101014.63;;;18.92;100.00
9421;BME280;4749;51.398;5.466;2023-03-21T13:33:58;101007.34;;;18.97;100.00
9421;BME280;4749;51.398;5.466;2023-03-21T13:36:29;101003.38;;;18.81;100.00
9421;BME280;4749;51.398;5.466;2023-03-21T13:39:03;101001.59;;;18.81;100.00
9421;BME280;4749;51.398;5.466;2023-03-21T13:41:41;101003.59;;;18.73;100.00
9421;BME280;4749;51.398;5.466;2023-03-21T13:44:23;100994.41;;;18.52;100.00
9421;BME280;4749;51.398;5.466;2023-03-21T13:47:03;100997.50;;;18.70;100.00
9421;BME280;4749;51.398;5.466;2023-03-21T13:49:35;100997.13;;;18.82;100.00
9421;BME280;4749;51.398;5.466;2023-03-21T13:52:26;100991.28;;;19.00;100.00
9421;BME280;4749;51.398;5.466;2023-03-21T13:54:56;100979.59;;;19.04;100.00
9421;BME280;4749;51.398;5.466;2023-03-21T14:00:28;100978.97;;;19.26;100.00
9421;BME280;4749;51.398;5.466;2023-03-21T14:03:00;100981.41;;;19.04;100.00
9421;BME280;4749;51.398;5.466;2023-03-21T14:05:32;100984.69;;;19.12;100.00
9421;BME280;4749;51.398;5.466;2023-03-21T14:08:07;100974.78;;;19.17;100.00
9421;BME280;4749;51.398;5.466;2023-03-21T14:10:47;100981.25;;;19.08;100.00
9421;BME280;4749;51.398;5.466;2023-03-21T14:13:21;100968.47;;;19.20;100.00
9421;BME280;4749;51.398;5.466;2023-03-21T14:16:04;100960.31;;;19.26;100.00
9421;BME280;4749;51.398;5.466;2023-03-21T14:18:47;100949.81;;;19.20;100.00
9421;BME280;4749;51.398;5.466;2023-03-21T14:21:26;100961.41;;;19.19;100.00
9421;BME280;4749;51.398;5.466;2023-03-21T14:24:05;100965.00;;;19.18;100.00
9421;BME280;4749;51.398;5.466;2023-03-21T14:26:45;100963.97;;;19.22;100.00
9421;BME280;4749;51.398;5.466;2023-03-21T14:29:32;100966.41;;;19.29;100.00
9421;BME280;4749;51.398;5.466;2023-03-21T14:32:01;100964.78;;;19.24;100.00
9421;BME280;4749;51.398;5.466;2023-03-21T14:34:32;100958.06;;;19.12;100.00
9421;BME280;4749;51.398;5.466;2023-03-21T14:37:00;100953.00;;;19.03;100.00
9421;BME280;4749;51.398;5.466;2023-03-21T14:39:32;100962.06;;;18.97;100.00
9421;BME280;4749;51.398;5.466;2023-03-21T14:42:11;100946.13;;;18.96;100.00
9421;BME280;4749;51.398;5.466;2023-03-21T14:44:47;100951.28;;;19.02;100.00
9421;BME280;4749;51.398;5.466;2023-03-21T14:47:28;100953.81;;;19.05;100.00
9421;BME280;4749;51.398;5.466;2023-03-21T14:49:56;100952.13;;;19.02;100.00
9421;BME280;4749;51.398;5.466;2023-03-21T14:52:31;100942.34;;;19.03;100.00
9421;BME280;4749;51.398;5.466;2023-03-21T14:55:00;100956.19;;;18.86;100.00
9421;BME280;4749;51.398;5.466;2023-03-21T14:57:31;100961.53;;;18.53;100.00
9421;BME280;4749;51.398;5.466;2023-03-21T15:00:04;100957.13;;;18.20;100.00
9421;BME280;4749;51.398;5.466;2023-03-21T15:02:40;100949.84;;;17.94;100.00
9421;BME280;4749;51.398;5.466;2023-03-21T15:05:48;100952.91;;;17.79;100.00